OIIE/IKA METAR and TAF weather

Enter ICAO airport designator
Station Type Date Time Source
OIIE METAR 2021/05/12 01:00 UTC NOAA

OIIE 120100Z 27006KT 9999 FEW100 17/08 Q1016


Station Type Date Time Source
OIIE Decoded METAR 2021/05/12 01:00 UTC NOAA

Station name not available
May 11, 2021 - 09:00 PM EDT / 2021.05.12 0100 UTC
Wind: from the W (270 degrees) at 7 MPH (6 KT):0
Visibility: greater than 7 mile(s):0
Sky conditions: mostly clear
Temperature: 62 F (17 C)
Dew Point: 46 F (8 C)
Relative Humidity: 55%
Pressure (altimeter): 30.00 in. Hg (1016 hPa)
ob: OIIE 120100Z 27006KT 9999 FEW100 17/08 Q1016
cycle: 1

Station Type Date Time Source
OIIE TAF 2021/05/11 18:00 UTC NOAA

TAF OIIE 111750Z 1118/1224 30008KT 8000 FEW040 SCT100
BECMG 1210/1212 FEW035CB SCT040 BKN100
TEMPO 1212/1218 06016G26KT 3000 TSRA SA SCT035CB SCT040 OVC090
BECMG 1218/1220 FEW035 SCT100

Example: see airport list